sensor_id;sensor_type;location;lat;lon;timestamp;pressure;altitude;pressure_sealevel;temperature;humidity
30636;BME280;17400;52.392;9.750;2024-03-02T00:00:03;99763.50;;;10.44;100.00
30636;BME280;17400;52.392;9.750;2024-03-02T00:02:56;99765.59;;;10.42;100.00
30636;BME280;17400;52.392;9.750;2024-03-02T00:05:49;99758.91;;;10.44;100.00
30636;BME280;17400;52.392;9.750;2024-03-02T00:08:35;99754.31;;;10.45;100.00
30636;BME280;17400;52.392;9.750;2024-03-02T00:11:21;99764.34;;;10.44;100.00
30636;BME280;17400;52.392;9.750;2024-03-02T00:14:09;99755.59;;;10.42;100.00
30636;BME280;17400;52.392;9.750;2024-03-02T00:16:56;99761.84;;;10.43;100.00
30636;BME280;17400;52.392;9.750;2024-03-02T00:19:42;99758.09;;;10.44;100.00
30636;BME280;17400;52.392;9.750;2024-03-02T00:22:28;99759.78;;;10.38;100.00
30636;BME280;17400;52.392;9.750;2024-03-02T00:25:14;99762.50;;;10.38;100.00
30636;BME280;17400;52.392;9.750;2024-03-02T00:28:00;99766.25;;;10.37;100.00
30636;BME280;17400;52.392;9.750;2024-03-02T00:30:55;99764.38;;;10.38;100.00
30636;BME280;17400;52.392;9.750;2024-03-02T00:33:43;99766.25;;;10.37;100.00
30636;BME280;17400;52.392;9.750;2024-03-02T00:36:30;99768.94;;;10.37;100.00
30636;BME280;17400;52.392;9.750;2024-03-02T00:39:16;99770.00;;;10.36;100.00
30636;BME280;17400;52.392;9.750;2024-03-02T00:42:03;99768.53;;;10.33;100.00
30636;BME280;17400;52.392;9.750;2024-03-02T00:44:49;99767.69;;;10.33;100.00
30636;BME280;17400;52.392;9.750;2024-03-02T00:47:39;99764.41;;;10.31;100.00
30636;BME280;17400;52.392;9.750;2024-03-02T00:50:25;99770.63;;;10.31;100.00
30636;BME280;17400;52.392;9.750;2024-03-02T00:53:15;99770.41;;;10.33;100.00
30636;BME280;17400;52.392;9.750;2024-03-02T00:56:02;99771.47;;;10.32;100.00
30636;BME280;17400;52.392;9.750;2024-03-02T00:58:49;99773.75;;;10.35;100.00
30636;BME280;17400;52.392;9.750;2024-03-02T01:01:35;99770.00;;;10.36;100.00
30636;BME280;17400;52.392;9.750;2024-03-02T01:04:23;99765.41;;;10.37;100.00
30636;BME280;17400;52.392;9.750;2024-03-02T01:07:09;99766.66;;;10.34;100.00
30636;BME280;17400;52.392;9.750;2024-03-02T01:09:55;99768.13;;;10.37;100.00
30636;BME280;17400;52.392;9.750;2024-03-02T01:12:41;99768.94;;;10.37;100.00
30636;BME280;17400;52.392;9.750;2024-03-02T01:15:27;99771.47;;;10.39;100.00
30636;BME280;17400;52.392;9.750;2024-03-02T01:18:14;99771.47;;;10.39;100.00
30636;BME280;17400;52.392;9.750;2024-03-02T01:21:01;99781.00;;;10.41;100.00
30636;BME280;17400;52.392;9.750;2024-03-02T01:23:47;99782.69;;;10.36;100.00
30636;BME280;17400;52.392;9.750;2024-03-02T01:26:34;99788.28;;;10.34;100.00
30636;BME280;17400;52.392;9.750;2024-03-02T01:29:20;99769.59;;;10.32;100.00
30636;BME280;17400;52.392;9.750;2024-03-02T01:32:06;99782.94;;;10.27;100.00
30636;BME280;17400;52.392;9.750;2024-03-02T01:34:52;99777.31;;;10.29;100.00
30636;BME280;17400;52.392;9.750;2024-03-02T01:37:40;99771.66;;;10.30;100.00
30636;BME280;17400;52.392;9.750;2024-03-02T01:40:26;99774.19;;;10.32;100.00
30636;BME280;17400;52.392;9.750;2024-03-02T01:43:13;99769.81;;;10.31;100.00
30636;BME280;17400;52.392;9.750;2024-03-02T01:45:59;99762.09;;;10.28;100.00
30636;BME280;17400;52.392;9.750;2024-03-02T01:48:45;99763.78;;;10.29;100.00
30636;BME280;17400;52.392;9.750;2024-03-02T01:51:32;99756.56;;;10.23;100.00
30636;BME280;17400;52.392;9.750;2024-03-02T01:54:20;99760.88;;;10.24;100.00
30636;BME280;17400;52.392;9.750;2024-03-02T01:57:08;99753.84;;;10.23;100.00
30636;BME280;17400;52.392;9.750;2024-03-02T01:59:54;99749.47;;;10.22;100.00
30636;BME280;17400;52.392;9.750;2024-03-02T02:02:41;99743.44;;;10.20;100.00
30636;BME280;17400;52.392;9.750;2024-03-02T02:05:27;99746.38;;;10.18;100.00
30636;BME280;17400;52.392;9.750;2024-03-02T02:08:14;99741.41;;;10.15;100.00
30636;BME280;17400;52.392;9.750;2024-03-02T02:11:01;99740.97;;;10.18;100.00
30636;BME280;17400;52.392;9.750;2024-03-02T02:13:47;99736.19;;;10.20;100.00
30636;BME280;17400;52.392;9.750;2024-03-02T02:16:33;99733.66;;;10.18;100.00
30636;BME280;17400;52.392;9.750;2024-03-02T02:19:19;99726.81;;;10.16;100.00
30636;BME280;17400;52.392;9.750;2024-03-02T02:22:07;99728.47;;;10.17;100.00
30636;BME280;17400;52.392;9.750;2024-03-02T02:24:53;99726.81;;;10.23;100.00
30636;BME280;17400;52.392;9.750;2024-03-02T02:27:41;99730.53;;;10.22;100.00
30636;BME280;17400;52.392;9.750;2024-03-02T02:30:28;99730.31;;;10.23;100.00
30636;BME280;17400;52.392;9.750;2024-03-02T02:33:15;99728.66;;;10.22;100.00
30636;BME280;17400;52.392;9.750;2024-03-02T02:36:01;99733.66;;;10.25;100.00
30636;BME280;17400;52.392;9.750;2024-03-02T02:38:50;99727.63;;;10.23;100.00
30636;BME280;17400;52.392;9.750;2024-03-02T02:41:36;99729.50;;;10.23;100.00
30636;BME280;17400;52.392;9.750;2024-03-02T02:44:22;99722.44;;;10.22;100.00
30636;BME280;17400;52.392;9.750;2024-03-02T02:47:08;99726.19;;;10.21;100.00
30636;BME280;17400;52.392;9.750;2024-03-02T02:49:54;99721.22;;;10.17;100.00
30636;BME280;17400;52.392;9.750;2024-03-02T02:52:41;99719.94;;;10.20;100.00
30636;BME280;17400;52.392;9.750;2024-03-02T02:55:28;99716.63;;;10.18;100.00
30636;BME280;17400;52.392;9.750;2024-03-02T02:58:15;99721.22;;;10.17;100.00
30636;BME280;17400;52.392;9.750;2024-03-02T03:01:01;99717.88;;;10.15;100.00
30636;BME280;17400;52.392;9.750;2024-03-02T03:03:47;99711.50;;;10.10;100.00
30636;BME280;17400;52.392;9.750;2024-03-02T03:06:33;99704.19;;;10.10;100.00
30636;BME280;17400;52.392;9.750;2024-03-02T03:09:19;99711.09;;;10.06;100.00
30636;BME280;17400;52.392;9.750;2024-03-02T03:12:07;99703.84;;;10.00;100.00
30636;BME280;17400;52.392;9.750;2024-03-02T03:14:53;99703.41;;;10.03;100.00
30636;BME280;17400;52.392;9.750;2024-03-02T03:17:40;99701.31;;;10.05;100.00
30636;BME280;17400;52.392;9.750;2024-03-02T03:20:26;99707.78;;;10.04;100.00
30636;BME280;17400;52.392;9.750;2024-03-02T03:23:12;99707.16;;;10.02;100.00
30636;BME280;17400;52.392;9.750;2024-03-02T03:26:00;99705.50;;;10.01;100.00
30636;BME280;17400;52.392;9.750;2024-03-02T03:28:48;99695.94;;;9.98;100.00
30636;BME280;17400;52.392;9.750;2024-03-02T03:31:34;99701.81;;;9.95;100.00
30636;BME280;17400;52.392;9.750;2024-03-02T03:34:21;99696.00;;;9.92;100.00
30636;BME280;17400;52.392;9.750;2024-03-02T03:37:07;99696.84;;;9.92;100.00
30636;BME280;17400;52.392;9.750;2024-03-02T03:39:54;99691.03;;;9.89;100.00
30636;BME280;17400;52.392;9.750;2024-03-02T03:42:40;99688.56;;;9.87;100.00
30636;BME280;17400;52.392;9.750;2024-03-02T03:45:28;99696.03;;;9.85;100.00
30636;BME280;17400;52.392;9.750;2024-03-02T03:48:15;99699.41;;;9.80;100.00
30636;BME280;17400;52.392;9.750;2024-03-02T03:51:01;99700.03;;;9.76;100.00
30636;BME280;17400;52.392;9.750;2024-03-02T03:53:47;99694.22;;;9.72;100.00
30636;BME280;17400;52.392;9.750;2024-03-02T03:56:33;99700.72;;;9.71;100.00
30636;BME280;17400;52.392;9.750;2024-03-02T03:59:19;99704.22;;;9.72;100.00
30636;BME280;17400;52.392;9.750;2024-03-02T04:02:08;99703.19;;;9.73;100.00
30636;BME280;17400;52.392;9.750;2024-03-02T04:04:54;99707.75;;;9.72;100.00
30636;BME280;17400;52.392;9.750;2024-03-02T04:07:40;99698.19;;;9.70;100.00
30636;BME280;17400;52.392;9.750;2024-03-02T04:10:28;99704.03;;;9.66;100.00
30636;BME280;17400;52.392;9.750;2024-03-02T04:13:15;99694.91;;;9.67;100.00
30636;BME280;17400;52.392;9.750;2024-03-02T04:16:01;99699.88;;;9.71;100.00
30636;BME280;17400;52.392;9.750;2024-03-02T04:18:49;99696.34;;;9.70;100.00
30636;BME280;17400;52.392;9.750;2024-03-02T04:21:36;99705.72;;;9.67;100.00
30636;BME280;17400;52.392;9.750;2024-03-02T04:24:22;99692.41;;;9.66;100.00
30636;BME280;17400;52.392;9.750;2024-03-02T04:27:08;99690.97;;;9.63;100.00
30636;BME280;17400;52.392;9.750;2024-03-02T04:29:54;99692.63;;;9.64;100.00
30636;BME280;17400;52.392;9.750;2024-03-02T04:32:40;99698.91;;;9.58;100.00
30636;BME280;17400;52.392;9.750;2024-03-02T04:35:28;99695.97;;;9.60;100.00
30636;BME280;17400;52.392;9.750;2024-03-02T04:38:14;99697.84;;;9.59;100.00
30636;BME280;17400;52.392;9.750;2024-03-02T04:41:00;99696.59;;;9.62;100.00
30636;BME280;17400;52.392;9.750;2024-03-02T04:43:46;99699.31;;;9.62;100.00
30636;BME280;17400;52.392;9.750;2024-03-02T04:46:32;99708.22;;;9.62;100.00
30636;BME280;17400;52.392;9.750;2024-03-02T04:49:18;99716.56;;;9.61;100.00
30636;BME280;17400;52.392;9.750;2024-03-02T04:52:06;99718.22;;;9.62;100.00
30636;BME280;17400;52.392;9.750;2024-03-02T04:54:52;99714.44;;;9.63;100.00
30636;BME280;17400;52.392;9.750;2024-03-02T04:57:58;99708.84;;;9.58;100.00
30636;BME280;17400;52.392;9.750;2024-03-02T05:00:44;99699.94;;;9.57;100.00
30636;BME280;17400;52.392;9.750;2024-03-02T05:03:31;99714.25;;;9.58;100.00
30636;BME280;17400;52.392;9.750;2024-03-02T05:06:20;99718.84;;;9.57;100.00
30636;BME280;17400;52.392;9.750;2024-03-02T05:09:07;99717.41;;;9.55;100.00
30636;BME280;17400;52.392;9.750;2024-03-02T05:11:53;99711.78;;;9.56;100.00
30636;BME280;17400;52.392;9.750;2024-03-02T05:14:56;99716.38;;;9.56;100.00
30636;BME280;17400;52.392;9.750;2024-03-02T05:17:42;99717.81;;;9.58;100.00
30636;BME280;17400;52.392;9.750;2024-03-02T05:20:29;99715.94;;;9.59;100.00
30636;BME280;17400;52.392;9.750;2024-03-02T05:23:15;99716.16;;;9.57;100.00
30636;BME280;17400;52.392;9.750;2024-03-02T05:26:02;99708.84;;;9.58;100.00
30636;BME280;17400;52.392;9.750;2024-03-02T05:28:48;99709.28;;;9.55;100.00
30636;BME280;17400;52.392;9.750;2024-03-02T05:31:35;99711.19;;;9.54;100.00
30636;BME280;17400;52.392;9.750;2024-03-02T05:34:21;99715.75;;;9.54;100.00
30636;BME280;17400;52.392;9.750;2024-03-02T05:37:07;99719.50;;;9.53;100.00
30636;BME280;17400;52.392;9.750;2024-03-02T05:39:53;99710.78;;;9.50;100.00
30636;BME280;17400;52.392;9.750;2024-03-02T05:42:41;99717.03;;;9.44;100.00
30636;BME280;17400;52.392;9.750;2024-03-02T05:45:27;99710.00;;;9.43;100.00
30636;BME280;17400;52.392;9.750;2024-03-02T05:48:13;99728.47;;;9.40;100.00
30636;BME280;17400;52.392;9.750;2024-03-02T05:50:59;99728.72;;;9.38;100.00
30636;BME280;17400;52.392;9.750;2024-03-02T05:53:45;99736.81;;;9.38;100.00
30636;BME280;17400;52.392;9.750;2024-03-02T05:56:32;99733.28;;;9.31;100.00
30636;BME280;17400;52.392;9.750;2024-03-02T05:59:20;99729.78;;;9.24;100.00
30636;BME280;17400;52.392;9.750;2024-03-02T06:02:06;99731.25;;;9.26;100.00
30636;BME280;17400;52.392;9.750;2024-03-02T06:04:56;99728.75;;;9.25;100.00
30636;BME280;17400;52.392;9.750;2024-03-02T06:07:43;99732.28;;;9.25;100.00
30636;BME280;17400;52.392;9.750;2024-03-02T06:10:29;99732.06;;;9.20;100.00
30636;BME280;17400;52.392;9.750;2024-03-02T06:13:15;99724.41;;;9.17;100.00
30636;BME280;17400;52.392;9.750;2024-03-02T06:16:03;99730.22;;;9.14;100.00
30636;BME280;17400;52.392;9.750;2024-03-02T06:18:49;99738.13;;;9.15;100.00
30636;BME280;17400;52.392;9.750;2024-03-02T06:21:36;99737.47;;;9.20;100.00
30636;BME280;17400;52.392;9.750;2024-03-02T06:24:22;99744.09;;;9.24;100.00
30636;BME280;17400;52.392;9.750;2024-03-02T06:27:08;99744.53;;;9.28;100.00
30636;BME280;17400;52.392;9.750;2024-03-02T06:29:55;99747.81;;;9.30;100.00
30636;BME280;17400;52.392;9.750;2024-03-02T06:32:42;99751.59;;;9.29;100.00
30636;BME280;17400;52.392;9.750;2024-03-02T06:35:28;99746.38;;;9.27;100.00
30636;BME280;17400;52.392;9.750;2024-03-02T06:38:14;99751.78;;;9.27;100.00
30636;BME280;17400;52.392;9.750;2024-03-02T06:41:00;99755.31;;;9.28;100.00
30636;BME280;17400;52.392;9.750;2024-03-02T06:43:47;99750.38;;;9.25;100.00
30636;BME280;17400;52.392;9.750;2024-03-02T06:46:33;99747.81;;;9.30;100.00
30636;BME280;17400;52.392;9.750;2024-03-02T06:49:21;99753.84;;;9.32;100.00
30636;BME280;17400;52.392;9.750;2024-03-02T06:52:07;99758.59;;;9.37;100.00
30636;BME280;17400;52.392;9.750;2024-03-02T06:54:54;99764.22;;;9.35;100.00
30636;BME280;17400;52.392;9.750;2024-03-02T06:57:41;99765.28;;;9.34;100.00
30636;BME280;17400;52.392;9.750;2024-03-02T07:00:27;99762.78;;;9.32;100.00
30636;BME280;17400;52.392;9.750;2024-03-02T07:03:14;99761.13;;;9.31;100.00
30636;BME280;17400;52.392;9.750;2024-03-02T07:06:01;99760.50;;;9.36;100.00
30636;BME280;17400;52.392;9.750;2024-03-02T07:08:48;99757.53;;;9.44;100.00
30636;BME280;17400;52.392;9.750;2024-03-02T07:11:34;99756.06;;;9.48;100.00
30636;BME280;17400;52.392;9.750;2024-03-02T07:14:20;99766.06;;;9.48;100.00
30636;BME280;17400;52.392;9.750;2024-03-02T07:17:07;99773.13;;;9.49;100.00
30636;BME280;17400;52.392;9.750;2024-03-02T07:19:53;99772.91;;;9.50;100.00
30636;BME280;17400;52.392;9.750;2024-03-02T07:22:41;99776.84;;;9.55;100.00
30636;BME280;17400;52.392;9.750;2024-03-02T07:25:29;99778.06;;;9.59;100.00
30636;BME280;17400;52.392;9.750;2024-03-02T07:28:18;99779.75;;;9.60;100.00
30636;BME280;17400;52.392;9.750;2024-03-02T07:31:04;99779.31;;;9.63;100.00
30636;BME280;17400;52.392;9.750;2024-03-02T07:33:50;99785.94;;;9.67;100.00
30636;BME280;17400;52.392;9.750;2024-03-02T07:36:37;99782.81;;;9.70;100.00
30636;BME280;17400;52.392;9.750;2024-03-02T07:39:25;99791.53;;;9.72;100.00
30636;BME280;17400;52.392;9.750;2024-03-02T07:42:11;99801.50;;;9.78;100.00
30636;BME280;17400;52.392;9.750;2024-03-02T07:44:57;99801.06;;;9.81;100.00
30636;BME280;17400;52.392;9.750;2024-03-02T07:47:44;99808.31;;;9.88;100.00
30636;BME280;17400;52.392;9.750;2024-03-02T07:50:30;99800.63;;;9.91;100.00
30636;BME280;17400;52.392;9.750;2024-03-02T07:53:19;99804.34;;;9.90;100.00
30636;BME280;17400;52.392;9.750;2024-03-02T07:56:07;99806.81;;;9.98;100.00
30636;BME280;17400;52.392;9.750;2024-03-02T07:58:53;99814.06;;;10.05;100.00
30636;BME280;17400;52.392;9.750;2024-03-02T08:01:39;99796.34;;;10.09;100.00
30636;BME280;17400;52.392;9.750;2024-03-02T08:04:25;99802.16;;;10.12;100.00
30636;BME280;17400;52.392;9.750;2024-03-02T08:07:12;99801.94;;;10.14;100.00
30636;BME280;17400;52.392;9.750;2024-03-02T08:09:58;99801.28;;;10.18;100.00
30636;BME280;17400;52.392;9.750;2024-03-02T08:12:46;99805.00;;;10.24;100.00
30636;BME280;17400;52.392;9.750;2024-03-02T08:15:32;99811.41;;;10.37;100.00
30636;BME280;17400;52.392;9.750;2024-03-02T08:18:18;99809.34;;;10.39;100.00
30636;BME280;17400;52.392;9.750;2024-03-02T08:21:05;99812.81;;;10.46;100.00
30636;BME280;17400;52.392;9.750;2024-03-02T08:23:53;99810.50;;;10.49;100.00
30636;BME280;17400;52.392;9.750;2024-03-02T08:26:39;99811.50;;;10.55;100.00
30636;BME280;17400;52.392;9.750;2024-03-02T08:29:27;99809.53;;;10.69;100.00
30636;BME280;17400;52.392;9.750;2024-03-02T08:32:13;99814.66;;;10.77;100.00
30636;BME280;17400;52.392;9.750;2024-03-02T08:35:00;99808.41;;;10.77;100.00
30636;BME280;17400;52.392;9.750;2024-03-02T08:37:46;99809.59;;;10.88;100.00
30636;BME280;17400;52.392;9.750;2024-03-02T08:40:32;99814.38;;;10.86;100.00
30636;BME280;17400;52.392;9.750;2024-03-02T08:43:18;99820.31;;;10.76;100.00
30636;BME280;17400;52.392;9.750;2024-03-02T08:46:05;99818.19;;;10.78;100.00
30636;BME280;17400;52.392;9.750;2024-03-02T08:48:52;99817.81;;;10.74;100.00
30636;BME280;17400;52.392;9.750;2024-03-02T08:51:38;99823.25;;;10.74;100.00
30636;BME280;17400;52.392;9.750;2024-03-02T08:54:24;99824.28;;;10.73;100.00
30636;BME280;17400;52.392;9.750;2024-03-02T08:57:10;99829.41;;;10.81;100.00
30636;BME280;17400;52.392;9.750;2024-03-02T08:59:57;99826.25;;;10.84;100.00
30636;BME280;17400;52.392;9.750;2024-03-02T09:02:45;99818.31;;;10.90;100.00
30636;BME280;17400;52.392;9.750;2024-03-02T09:05:31;99826.44;;;10.90;100.00
30636;BME280;17400;52.392;9.750;2024-03-02T09:08:18;99816.00;;;10.93;100.00
30636;BME280;17400;52.392;9.750;2024-03-02T09:11:04;99820.72;;;10.98;100.00
30636;BME280;17400;52.392;9.750;2024-03-02T09:13:51;99821.13;;;11.02;100.00
30636;BME280;17400;52.392;9.750;2024-03-02T09:16:37;99822.16;;;11.00;100.00
30636;BME280;17400;52.392;9.750;2024-03-02T09:19:25;99825.63;;;10.89;100.00
30636;BME280;17400;52.392;9.750;2024-03-02T09:22:11;99823.91;;;10.95;100.00
30636;BME280;17400;52.392;9.750;2024-03-02T09:24:58;99819.34;;;10.89;100.00
30636;BME280;17400;52.392;9.750;2024-03-02T09:27:44;99820.19;;;10.89;100.00
30636;BME280;17400;52.392;9.750;2024-03-02T09:30:30;99824.13;;;10.93;100.00
30636;BME280;17400;52.392;9.750;2024-03-02T09:33:16;99827.28;;;10.90;100.00
30636;BME280;17400;52.392;9.750;2024-03-02T09:36:04;99835.41;;;10.90;100.00
30636;BME280;17400;52.392;9.750;2024-03-02T09:38:50;99833.97;;;10.88;100.00
30636;BME280;17400;52.392;9.750;2024-03-02T09:41:36;99841.25;;;10.87;100.00
30636;BME280;17400;52.392;9.750;2024-03-02T09:44:23;99836.22;;;10.91;100.00
30636;BME280;17400;52.392;9.750;2024-03-02T09:47:10;99837.03;;;10.91;100.00
30636;BME280;17400;52.392;9.750;2024-03-02T09:49:56;99832.25;;;10.93;100.00
30636;BME280;17400;52.392;9.750;2024-03-02T09:52:44;99830.16;;;10.95;100.00
30636;BME280;17400;52.392;9.750;2024-03-02T09:55:34;99837.22;;;10.96;100.00
30636;BME280;17400;52.392;9.750;2024-03-02T09:58:20;99841.81;;;10.96;100.00
30636;BME280;17400;52.392;9.750;2024-03-02T10:01:06;99835.56;;;10.95;100.00
30636;BME280;17400;52.392;9.750;2024-03-02T10:03:53;99844.91;;;10.99;100.00
30636;BME280;17400;52.392;9.750;2024-03-02T10:06:40;99848.22;;;11.02;100.00
30636;BME280;17400;52.392;9.750;2024-03-02T10:09:30;99849.94;;;10.96;99.81
30636;BME280;17400;52.392;9.750;2024-03-02T10:12:17;99854.66;;;11.00;99.74
30636;BME280;17400;52.392;9.750;2024-03-02T10:15:04;99853.22;;;10.98;98.88
30636;BME280;17400;52.392;9.750;2024-03-02T10:17:52;99845.72;;;11.00;99.04
30636;BME280;17400;52.392;9.750;2024-03-02T10:20:39;99841.81;;;10.96;98.96
30636;BME280;17400;52.392;9.750;2024-03-02T10:23:25;99852.34;;;11.04;99.34
30636;BME280;17400;52.392;9.750;2024-03-02T10:26:16;99856.44;;;11.13;98.96
30636;BME280;17400;52.392;9.750;2024-03-02T10:29:03;99843.28;;;11.17;98.32
30636;BME280;17400;52.392;9.750;2024-03-02T10:31:49;99853.44;;;11.22;97.60
30636;BME280;17400;52.392;9.750;2024-03-02T10:34:36;99851.13;;;11.25;97.16
30636;BME280;17400;52.392;9.750;2024-03-02T10:37:22;99859.88;;;11.27;96.73
30636;BME280;17400;52.392;9.750;2024-03-02T10:40:10;99853.78;;;11.32;95.76
30636;BME280;17400;52.392;9.750;2024-03-02T10:42:59;99852.09;;;11.31;95.71
30636;BME280;17400;52.392;9.750;2024-03-02T10:45:49;99852.28;;;11.36;94.66
30636;BME280;17400;52.392;9.750;2024-03-02T10:48:39;99845.56;;;11.39;93.98
30636;BME280;17400;52.392;9.750;2024-03-02T10:51:29;99839.50;;;11.43;94.21
30636;BME280;17400;52.392;9.750;2024-03-02T10:54:16;99847.47;;;11.57;94.41
30636;BME280;17400;52.392;9.750;2024-03-02T10:57:11;99845.97;;;11.61;94.14
30636;BME280;17400;52.392;9.750;2024-03-02T11:00:03;99841.19;;;11.63;92.42
30636;BME280;17400;52.392;9.750;2024-03-02T11:02:50;99843.28;;;11.61;90.77
30636;BME280;17400;52.392;9.750;2024-03-02T11:05:39;99845.53;;;11.64;91.03
30636;BME280;17400;52.392;9.750;2024-03-02T11:08:27;99846.88;;;11.73;91.52
30636;BME280;17400;52.392;9.750;2024-03-02T11:11:19;99849.44;;;11.87;91.63
30636;BME280;17400;52.392;9.750;2024-03-02T11:14:12;99844.38;;;11.90;89.44
30636;BME280;17400;52.392;9.750;2024-03-02T11:17:02;99841.69;;;11.90;89.24
30636;BME280;17400;52.392;9.750;2024-03-02T11:19:50;99846.13;;;11.84;88.64
30636;BME280;17400;52.392;9.750;2024-03-02T11:22:37;99840.41;;;11.93;88.99
30636;BME280;17400;52.392;9.750;2024-03-02T11:25:25;99855.00;;;11.92;88.04
30636;BME280;17400;52.392;9.750;2024-03-02T11:28:11;99851.72;;;11.90;86.51
30636;BME280;17400;52.392;9.750;2024-03-02T11:30:57;99853.06;;;11.80;85.96
30636;BME280;17400;52.392;9.750;2024-03-02T11:33:45;99848.84;;;11.84;86.71
30636;BME280;17400;52.392;9.750;2024-03-02T11:36:31;99848.53;;;11.93;86.91
30636;BME280;17400;52.392;9.750;2024-03-02T11:39:18;99852.47;;;11.97;85.90
30636;BME280;17400;52.392;9.750;2024-03-02T11:42:05;99839.28;;;12.00;85.06
30636;BME280;17400;52.392;9.750;2024-03-02T11:44:56;99842.97;;;12.06;86.11
30636;BME280;17400;52.392;9.750;2024-03-02T11:47:46;99840.16;;;12.13;85.04
30636;BME280;17400;52.392;9.750;2024-03-02T11:50:41;99839.50;;;12.18;85.20
30636;BME280;17400;52.392;9.750;2024-03-02T11:53:30;99840.16;;;12.13;82.93
30636;BME280;17400;52.392;9.750;2024-03-02T11:56:20;99840.53;;;12.16;82.84
30636;BME280;17400;52.392;9.750;2024-03-02T11:59:07;99835.59;;;12.13;82.08
30636;BME280;17400;52.392;9.750;2024-03-02T12:01:53;99839.25;;;12.19;82.68
30636;BME280;17400;52.392;9.750;2024-03-02T12:04:40;99836.94;;;12.23;81.01
30636;BME280;17400;52.392;9.750;2024-03-02T12:07:29;99819.50;;;12.30;80.98
30636;BME280;17400;52.392;9.750;2024-03-02T12:10:16;99824.34;;;12.40;80.59
30636;BME280;17400;52.392;9.750;2024-03-02T12:13:04;99825.41;;;12.39;79.39
30636;BME280;17400;52.392;9.750;2024-03-02T12:15:53;99819.19;;;12.50;79.44
30636;BME280;17400;52.392;9.750;2024-03-02T12:18:41;99821.56;;;12.59;78.88
30636;BME280;17400;52.392;9.750;2024-03-02T12:21:28;99817.94;;;12.65;77.28
30636;BME280;17400;52.392;9.750;2024-03-02T12:24:16;99817.47;;;12.68;78.01
30636;BME280;17400;52.392;9.750;2024-03-02T12:27:03;99811.22;;;12.68;76.90
30636;BME280;17400;52.392;9.750;2024-03-02T12:29:49;99806.47;;;12.63;76.87
30636;BME280;17400;52.392;9.750;2024-03-02T12:32:37;99802.84;;;12.69;77.77
30636;BME280;17400;52.392;9.750;2024-03-02T12:35:24;99802.59;;;12.71;76.55
30636;BME280;17400;52.392;9.750;2024-03-02T12:38:10;99802.63;;;12.82;77.66
30636;BME280;17400;52.392;9.750;2024-03-02T12:40:58;99795.28;;;12.95;76.12
30636;BME280;17400;52.392;9.750;2024-03-02T12:43:44;99804.16;;;13.02;74.15
30636;BME280;17400;52.392;9.750;2024-03-02T12:46:30;99802.16;;;13.09;72.31
30636;BME280;17400;52.392;9.750;2024-03-02T12:49:16;99791.75;;;13.18;72.39
30636;BME280;17400;52.392;9.750;2024-03-02T12:52:04;99785.72;;;13.28;71.05
30636;BME280;17400;52.392;9.750;2024-03-02T12:54:50;99786.22;;;13.48;70.83
30636;BME280;17400;52.392;9.750;2024-03-02T12:57:39;99786.75;;;13.62;68.27
30636;BME280;17400;52.392;9.750;2024-03-02T13:00:28;99787.69;;;13.80;65.22
30636;BME280;17400;52.392;9.750;2024-03-02T13:03:18;99785.38;;;13.89;63.58
30636;BME280;17400;52.392;9.750;2024-03-02T13:06:06;99792.00;;;13.93;61.92
30636;BME280;17400;52.392;9.750;2024-03-02T13:08:52;99785.19;;;14.07;61.40
30636;BME280;17400;52.392;9.750;2024-03-02T13:11:40;99779.25;;;14.22;62.53
30636;BME280;17400;52.392;9.750;2024-03-02T13:14:27;99785.28;;;14.41;61.11
30636;BME280;17400;52.392;9.750;2024-03-02T13:17:14;99773.25;;;14.54;60.77
30636;BME280;17400;52.392;9.750;2024-03-02T13:20:00;99771.91;;;14.69;59.30
30636;BME280;17400;52.392;9.750;2024-03-02T13:22:46;99778.31;;;14.79;58.59
30636;BME280;17400;52.392;9.750;2024-03-02T13:25:33;99777.91;;;14.88;56.50
30636;BME280;17400;52.392;9.750;2024-03-02T13:28:19;99769.88;;;14.98;55.40
30636;BME280;17400;52.392;9.750;2024-03-02T13:31:07;99775.50;;;15.08;55.62
30636;BME280;17400;52.392;9.750;2024-03-02T13:33:53;99777.13;;;15.09;55.08
30636;BME280;17400;52.392;9.750;2024-03-02T13:36:39;99781.59;;;15.15;55.98
30636;BME280;17400;52.392;9.750;2024-03-02T13:39:26;99770.50;;;15.22;54.41
30636;BME280;17400;52.392;9.750;2024-03-02T13:42:12;99764.63;;;15.30;55.50
30636;BME280;17400;52.392;9.750;2024-03-02T13:45:00;99769.66;;;15.39;55.19
30636;BME280;17400;52.392;9.750;2024-03-02T13:47:47;99765.63;;;15.46;55.20
30636;BME280;17400;52.392;9.750;2024-03-02T13:50:35;99763.75;;;15.47;55.01
30636;BME280;17400;52.392;9.750;2024-03-02T13:53:21;99775.72;;;15.46;54.69
30636;BME280;17400;52.392;9.750;2024-03-02T13:56:08;99759.25;;;15.19;54.89
30636;BME280;17400;52.392;9.750;2024-03-02T13:58:55;99768.78;;;15.16;54.32
30636;BME280;17400;52.392;9.750;2024-03-02T14:01:41;99768.13;;;15.09;54.79
30636;BME280;17400;52.392;9.750;2024-03-02T14:04:29;99760.31;;;14.95;55.43
30636;BME280;17400;52.392;9.750;2024-03-02T14:07:16;99760.06;;;14.80;55.79
30636;BME280;17400;52.392;9.750;2024-03-02T14:10:03;99763.72;;;14.69;56.07
30636;BME280;17400;52.392;9.750;2024-03-02T14:12:49;99763.84;;;14.62;56.51
30636;BME280;17400;52.392;9.750;2024-03-02T14:15:35;99762.09;;;14.56;57.38
30636;BME280;17400;52.392;9.750;2024-03-02T14:18:24;99754.25;;;14.42;57.74
30636;BME280;17400;52.392;9.750;2024-03-02T14:21:12;99763.41;;;14.36;58.36
30636;BME280;17400;52.392;9.750;2024-03-02T14:23:58;99761.34;;;14.26;59.09
30636;BME280;17400;52.392;9.750;2024-03-02T14:26:45;99753.81;;;14.16;58.99
30636;BME280;17400;52.392;9.750;2024-03-02T14:29:31;99756.22;;;14.13;59.27
30636;BME280;17400;52.392;9.750;2024-03-02T14:32:21;99755.50;;;14.06;58.91
30636;BME280;17400;52.392;9.750;2024-03-02T14:35:08;99755.16;;;14.02;59.01
30636;BME280;17400;52.392;9.750;2024-03-02T14:37:57;99754.00;;;13.98;59.53